createdAt,value
2017-10-27T00:01:35.403Z,14.28
2017-10-27T00:04:02.798Z,14.32
2017-10-27T00:06:30.227Z,14.34
2017-10-27T00:08:57.632Z,14.32
2017-10-27T00:11:25.050Z,14.25
2017-10-27T00:13:52.438Z,14.17
2017-10-27T00:16:19.859Z,14.13
2017-10-27T00:18:47.254Z,14.08
2017-10-27T00:21:14.642Z,14.06
2017-10-27T00:23:42.042Z,14.06
2017-10-27T00:26:09.430Z,14.12
2017-10-27T00:28:36.830Z,14.17
2017-10-27T00:31:04.265Z,14.25
2017-10-27T00:33:31.658Z,14.23
2017-10-27T00:35:59.062Z,14.16
2017-10-27T00:38:26.479Z,14.20
2017-10-27T00:40:53.898Z,14.26
2017-10-27T00:43:21.302Z,14.24
2017-10-27T00:45:48.717Z,14.25
2017-10-27T00:48:16.110Z,14.16
2017-10-27T00:50:43.515Z,14.23
2017-10-27T00:53:10.934Z,14.16
2017-10-27T00:55:38.361Z,14.17
2017-10-27T00:58:05.741Z,14.21
2017-10-27T01:00:33.170Z,14.23
2017-10-27T01:03:00.554Z,14.26
2017-10-27T01:05:27.959Z,14.16
2017-10-27T01:07:55.362Z,14.13
2017-10-27T01:10:22.750Z,14.13
2017-10-27T01:12:50.150Z,14.18
2017-10-27T01:15:17.574Z,14.23
2017-10-27T01:17:44.974Z,14.29
2017-10-27T01:20:12.381Z,14.20
2017-10-27T01:22:40.077Z,14.22
2017-10-27T01:25:07.500Z,14.24
2017-10-27T01:27:34.884Z,14.28
2017-10-27T01:30:02.297Z,14.17
2017-10-27T01:32:29.686Z,14.21
2017-10-27T01:34:57.091Z,14.20
2017-10-27T01:37:24.535Z,14.17
2017-10-27T01:39:51.938Z,14.21
2017-10-27T01:42:19.324Z,14.26
2017-10-27T01:44:46.734Z,14.26
2017-10-27T01:47:14.222Z,14.12
2017-10-27T01:49:41.610Z,14.12
2017-10-27T01:52:09.026Z,14.12
2017-10-27T01:54:36.434Z,14.09
2017-10-27T01:57:03.858Z,14.15
2017-10-27T01:59:31.273Z,14.12
2017-10-27T02:01:58.685Z,14.11
2017-10-27T02:04:26.070Z,14.11
2017-10-27T02:06:53.481Z,14.06
2017-10-27T02:09:20.879Z,14.03
2017-10-27T02:11:48.266Z,13.90
2017-10-27T02:14:15.661Z,13.95
2017-10-27T02:16:43.086Z,13.94
2017-10-27T02:19:10.506Z,13.89
2017-10-27T02:21:37.921Z,13.87
2017-10-27T02:24:05.386Z,13.81
2017-10-27T02:26:32.781Z,13.81
2017-10-27T02:29:00.186Z,13.74
2017-10-27T02:31:27.593Z,13.79
2017-10-27T02:33:54.987Z,13.72
2017-10-27T02:36:22.398Z,13.65
2017-10-27T02:38:49.814Z,13.56
2017-10-27T02:41:17.210Z,13.64
2017-10-27T02:43:44.618Z,13.70
2017-10-27T02:46:12.048Z,13.61
2017-10-27T02:48:39.448Z,13.61
2017-10-27T02:51:06.874Z,13.64
2017-10-27T02:53:34.310Z,13.60
2017-10-27T02:56:01.724Z,13.56
2017-10-27T02:58:29.141Z,13.53
2017-10-27T03:00:56.581Z,13.55
2017-10-27T03:03:23.976Z,13.56
2017-10-27T03:05:51.386Z,13.67
2017-10-27T03:08:18.787Z,13.69
2017-10-27T03:10:46.177Z,13.69
2017-10-27T03:13:13.606Z,13.61
2017-10-27T03:15:40.990Z,13.56
2017-10-27T03:18:08.443Z,13.48
2017-10-27T03:20:35.838Z,13.51
2017-10-27T03:23:03.239Z,13.47
2017-10-27T03:25:30.642Z,13.47
2017-10-27T03:27:58.053Z,13.43
2017-10-27T03:30:25.478Z,13.47
2017-10-27T03:32:52.890Z,13.44
2017-10-27T03:35:20.310Z,13.43
2017-10-27T03:37:47.718Z,13.35
2017-10-27T03:40:15.109Z,13.36
2017-10-27T03:42:42.553Z,13.31
2017-10-27T03:45:09.970Z,13.33
2017-10-27T03:47:37.366Z,13.33
2017-10-27T03:50:04.796Z,13.40
2017-10-27T03:52:32.194Z,13.42
2017-10-27T03:54:59.618Z,13.36
2017-10-27T03:57:27.036Z,13.40
2017-10-27T03:59:54.430Z,13.46
2017-10-27T04:02:21.827Z,13.35
2017-10-27T04:04:49.229Z,13.34
2017-10-27T04:07:16.632Z,13.35
2017-10-27T04:09:44.030Z,13.43
2017-10-27T04:12:11.438Z,13.44
2017-10-27T04:14:38.838Z,13.45
2017-10-27T04:17:06.295Z,13.43
2017-10-27T04:19:33.711Z,13.33
2017-10-27T04:22:01.106Z,13.36
2017-10-27T04:24:28.503Z,13.31
2017-10-27T04:26:55.930Z,13.25
2017-10-27T04:29:23.332Z,13.18
2017-10-27T04:31:50.758Z,13.13
2017-10-27T04:34:18.172Z,13.10
2017-10-27T04:36:45.580Z,13.13
2017-10-27T04:39:13.022Z,13.15
2017-10-27T04:41:40.461Z,13.18
2017-10-27T04:44:07.840Z,13.18
2017-10-27T04:46:35.266Z,13.16
2017-10-27T04:49:02.677Z,13.10
2017-10-27T04:51:30.079Z,13.13
2017-10-27T04:53:57.479Z,13.16
2017-10-27T04:56:24.916Z,13.12
2017-10-27T04:58:52.294Z,13.04
2017-10-27T05:01:19.686Z,13.05
2017-10-27T05:03:47.146Z,13.03
2017-10-27T05:06:14.550Z,13.07
2017-10-27T05:08:41.945Z,12.93
2017-10-27T05:11:09.382Z,12.87
2017-10-27T05:13:36.787Z,12.90
2017-10-27T05:16:04.178Z,12.86
2017-10-27T05:18:37.111Z,12.85
2017-10-27T05:21:10.179Z,12.86
2017-10-27T05:23:43.094Z,12.87
2017-10-27T05:26:10.498Z,12.91
2017-10-27T05:28:37.902Z,12.94
2017-10-27T05:31:05.334Z,12.84
2017-10-27T05:33:32.765Z,12.75
2017-10-27T05:36:00.179Z,12.74
2017-10-27T05:38:27.638Z,12.71
2017-10-27T05:40:56.616Z,12.68
2017-10-27T05:43:24.074Z,12.66
2017-10-27T05:45:51.489Z,12.70
2017-10-27T05:48:18.909Z,12.74
2017-10-27T05:50:46.362Z,12.71
2017-10-27T05:53:16.042Z,12.72
2017-10-27T05:55:43.418Z,12.68
2017-10-27T05:58:12.222Z,12.72
2017-10-27T06:00:40.654Z,12.66
2017-10-27T06:03:08.030Z,12.67
2017-10-27T06:05:35.474Z,12.61
2017-10-27T06:08:02.915Z,12.57
2017-10-27T06:10:30.344Z,12.64
2017-10-27T06:12:57.723Z,12.69
2017-10-27T06:15:25.131Z,12.59
2017-10-27T06:17:52.551Z,12.56
2017-10-27T06:20:20.049Z,12.62
2017-10-27T06:22:48.180Z,12.60
2017-10-27T06:25:15.601Z,12.62
2017-10-27T06:27:43.069Z,12.62
2017-10-27T06:30:10.613Z,12.55
2017-10-27T06:32:38.089Z,12.48
2017-10-27T06:35:06.048Z,12.50
2017-10-27T06:37:33.541Z,12.46
2017-10-27T06:40:00.952Z,12.37
2017-10-27T06:42:28.470Z,12.44
2017-10-27T06:44:55.868Z,12.42
2017-10-27T06:47:24.154Z,12.31
2017-10-27T06:49:51.561Z,12.31
2017-10-27T06:52:19.018Z,12.27
2017-10-27T06:54:46.426Z,12.27
2017-10-27T06:57:13.859Z,12.31
2017-10-27T06:59:41.301Z,12.36
2017-10-27T07:02:08.681Z,12.44
2017-10-27T07:04:36.089Z,12.56
2017-10-27T07:07:03.552Z,12.71
2017-10-27T07:09:30.947Z,12.67
2017-10-27T07:11:58.332Z,12.41
2017-10-27T07:14:25.763Z,12.20
2017-10-27T07:16:53.146Z,12.05
2017-10-27T07:19:20.547Z,11.92
2017-10-27T07:21:48.072Z,11.79
2017-10-27T07:24:15.469Z,11.75
2017-10-27T07:26:42.930Z,11.80
2017-10-27T07:29:10.318Z,11.77
2017-10-27T07:31:37.734Z,11.77
2017-10-27T07:34:05.122Z,11.83
2017-10-27T07:36:32.630Z,11.97
2017-10-27T07:39:00.118Z,12.00
2017-10-27T07:41:27.522Z,12.06
2017-10-27T07:43:54.944Z,12.05
2017-10-27T07:46:22.342Z,11.99
2017-10-27T07:48:49.758Z,11.96
2017-10-27T07:51:17.238Z,11.99
2017-10-27T07:53:44.638Z,12.05
2017-10-27T07:56:12.035Z,12.12
2017-10-27T07:58:39.452Z,12.17
2017-10-27T08:01:06.886Z,12.13
2017-10-27T08:03:34.284Z,12.15
2017-10-27T08:06:01.687Z,12.27
2017-10-27T08:08:29.131Z,12.34
2017-10-27T08:10:56.587Z,12.44
2017-10-27T08:13:23.991Z,12.46
2017-10-27T08:15:51.378Z,12.52
2017-10-27T08:18:18.775Z,12.48
2017-10-27T08:20:46.225Z,12.27
2017-10-27T08:23:13.628Z,12.33
2017-10-27T08:25:41.021Z,12.34
2017-10-27T08:28:08.432Z,12.34
2017-10-27T08:30:35.826Z,12.34
2017-10-27T08:33:03.278Z,12.27
2017-10-27T08:35:30.690Z,12.31
2017-10-27T08:37:58.073Z,12.30
2017-10-27T08:40:25.514Z,12.39
2017-10-27T08:42:52.957Z,12.39
2017-10-27T08:45:20.390Z,12.54
2017-10-27T08:47:47.798Z,12.61
2017-10-27T08:50:15.216Z,12.68
2017-10-27T08:52:42.609Z,12.69
2017-10-27T08:55:10.662Z,12.71
2017-10-27T08:57:38.058Z,12.67
2017-10-27T09:00:05.552Z,12.71
2017-10-27T09:02:32.953Z,12.81
2017-10-27T09:05:00.418Z,12.83
2017-10-27T09:07:27.819Z,12.83
2017-10-27T09:09:55.211Z,12.70
2017-10-27T09:12:22.607Z,12.77
2017-10-27T09:14:50.010Z,12.81
2017-10-27T09:17:17.421Z,12.82
2017-10-27T09:19:44.833Z,12.94
2017-10-27T09:22:12.206Z,13.21
2017-10-27T09:24:39.602Z,13.38
2017-10-27T09:27:07.021Z,13.40
2017-10-27T09:29:34.429Z,13.73
2017-10-27T09:32:01.856Z,13.82
2017-10-27T09:34:29.258Z,13.65
2017-10-27T09:36:56.659Z,13.72
2017-10-27T09:39:24.758Z,14.03
2017-10-27T09:41:52.161Z,13.99
2017-10-27T09:44:19.582Z,13.68
2017-10-27T09:46:47.014Z,13.48
2017-10-27T09:49:14.434Z,13.48
2017-10-27T09:51:41.826Z,13.57
2017-10-27T09:54:09.218Z,13.69
2017-10-27T09:56:36.631Z,13.71
2017-10-27T09:59:04.014Z,13.62
2017-10-27T10:01:31.402Z,13.85
2017-10-27T10:03:58.824Z,13.99
2017-10-27T10:06:26.244Z,14.20
2017-10-27T10:08:53.651Z,14.31
2017-10-27T10:11:21.046Z,14.13
2017-10-27T10:13:48.460Z,14.28
2017-10-27T10:16:15.881Z,14.52
2017-10-27T10:18:43.264Z,14.75
2017-10-27T10:21:10.671Z,14.75
2017-10-27T10:23:38.063Z,14.96
2017-10-27T10:26:05.459Z,14.72
2017-10-27T10:28:32.933Z,14.66
2017-10-27T10:31:00.336Z,14.32
2017-10-27T10:33:27.750Z,14.40
2017-10-27T10:35:55.145Z,14.41
2017-10-27T10:38:22.522Z,14.56
2017-10-27T10:40:49.932Z,14.45
2017-10-27T10:43:17.362Z,14.32
2017-10-27T10:45:44.754Z,14.62
2017-10-27T10:48:12.159Z,14.63
2017-10-27T10:50:39.532Z,14.49
2017-10-27T10:53:06.930Z,14.64
2017-10-27T10:55:34.357Z,14.57
2017-10-27T10:58:01.748Z,14.59
2017-10-27T11:00:29.162Z,14.83
2017-10-27T11:02:56.569Z,14.87
2017-10-27T11:05:23.954Z,14.75
2017-10-27T11:07:51.830Z,14.45
2017-10-27T11:10:20.194Z,14.03
2017-10-27T11:12:47.597Z,13.55
2017-10-27T11:15:15.006Z,13.31
2017-10-27T11:17:42.410Z,13.04
2017-10-27T11:20:09.795Z,12.99
2017-10-27T11:22:37.201Z,12.85
2017-10-27T11:25:04.607Z,12.97
2017-10-27T11:27:32.007Z,13.32
2017-10-27T11:29:59.396Z,13.47
2017-10-27T11:32:26.796Z,13.52
2017-10-27T11:34:54.187Z,13.64
2017-10-27T11:37:21.575Z,13.54
2017-10-27T11:39:49.249Z,13.42
2017-10-27T11:42:17.242Z,13.33
2017-10-27T11:44:44.678Z,13.32
2017-10-27T11:47:12.159Z,13.56
2017-10-27T11:49:39.535Z,13.89
2017-10-27T11:52:07.523Z,14.27
2017-10-27T11:54:34.932Z,14.55
2017-10-27T11:57:02.342Z,14.78
2017-10-27T11:59:29.774Z,14.75
2017-10-27T12:01:57.213Z,14.92
2017-10-27T12:04:26.418Z,14.67
2017-10-27T12:06:53.855Z,14.66
2017-10-27T12:09:21.242Z,14.46
2017-10-27T12:11:48.642Z,14.17
2017-10-27T12:14:16.076Z,13.57
2017-10-27T12:16:43.463Z,13.09
2017-10-27T12:19:10.867Z,12.90
2017-10-27T12:21:44.237Z,12.96
2017-10-27T12:24:12.442Z,12.83
2017-10-27T12:26:39.834Z,12.86
2017-10-27T12:29:07.245Z,12.81
2017-10-27T12:31:34.887Z,12.77
2017-10-27T12:34:02.254Z,12.83
2017-10-27T12:36:29.720Z,12.91
2017-10-27T12:38:57.155Z,13.11
2017-10-27T12:41:25.599Z,13.41
2017-10-27T12:43:53.101Z,13.46
2017-10-27T12:46:22.275Z,13.39
2017-10-27T12:48:50.233Z,13.34
2017-10-27T12:51:18.526Z,13.38
2017-10-27T12:53:45.909Z,13.18
2017-10-27T12:56:13.295Z,13.07
2017-10-27T12:58:40.714Z,13.22
2017-10-27T13:01:08.106Z,13.61
2017-10-27T13:03:35.487Z,13.92
2017-10-27T13:06:02.899Z,14.08
2017-10-27T13:08:30.285Z,14.22
2017-10-27T13:10:57.670Z,14.43
2017-10-27T13:13:25.178Z,14.54
2017-10-27T13:15:52.567Z,14.49
2017-10-27T13:18:19.967Z,14.32
2017-10-27T13:20:47.362Z,14.27
2017-10-27T13:23:14.746Z,14.34
2017-10-27T13:25:42.130Z,14.30
2017-10-27T13:28:20.439Z,14.47
2017-10-27T13:30:47.825Z,14.50
2017-10-27T13:33:15.211Z,14.61
2017-10-27T13:35:42.624Z,14.67
2017-10-27T13:38:10.010Z,14.80
2017-10-27T13:40:37.398Z,14.78
2017-10-27T13:43:04.806Z,14.91
2017-10-27T13:45:32.194Z,14.99
2017-10-27T13:47:59.861Z,14.80
2017-10-27T13:50:27.279Z,14.63
2017-10-27T13:52:54.723Z,14.52
2017-10-27T13:55:22.118Z,14.38
2017-10-27T13:57:49.567Z,14.47
2017-10-27T14:00:17.958Z,14.61
2017-10-27T14:02:45.409Z,14.75
2017-10-27T14:05:13.734Z,15.09
2017-10-27T14:07:41.126Z,15.25
2017-10-27T14:10:08.534Z,15.27
2017-10-27T14:12:37.236Z,15.09
2017-10-27T14:15:04.611Z,14.94
2017-10-27T14:17:32.708Z,14.80
2017-10-27T14:20:00.119Z,14.67
2017-10-27T14:22:27.502Z,14.63
2017-10-27T14:24:54.882Z,14.64
2017-10-27T14:27:22.398Z,14.66
2017-10-27T14:29:49.770Z,14.55
2017-10-27T14:32:17.183Z,14.55
2017-10-27T14:34:44.610Z,14.53
2017-10-27T14:37:11.982Z,14.51
2017-10-27T14:39:39.366Z,14.47
2017-10-27T14:42:06.875Z,14.48
2017-10-27T14:44:34.254Z,14.50
2017-10-27T14:47:01.648Z,14.50
2017-10-27T14:49:29.046Z,14.43
2017-10-27T14:51:56.437Z,14.39
2017-10-27T14:54:23.813Z,14.43
2017-10-27T14:56:51.233Z,14.42
2017-10-27T14:59:18.630Z,14.41
2017-10-27T15:01:46.010Z,14.30
2017-10-27T15:04:13.508Z,14.21
2017-10-27T15:06:40.942Z,14.06
2017-10-27T15:09:08.333Z,13.92
2017-10-27T15:11:35.802Z,13.84
2017-10-27T15:14:03.192Z,13.81
2017-10-27T15:16:30.574Z,13.85
2017-10-27T15:18:57.983Z,13.87
2017-10-27T15:21:25.377Z,13.88
2017-10-27T15:23:52.766Z,13.87
2017-10-27T15:26:20.181Z,13.93
2017-10-27T15:28:47.561Z,14.02
2017-10-27T15:31:14.946Z,14.05
2017-10-27T15:33:42.365Z,14.10
2017-10-27T15:36:09.750Z,14.08
2017-10-27T15:38:37.133Z,14.20
2017-10-27T15:41:04.531Z,14.19
2017-10-27T15:43:31.926Z,14.08
2017-10-27T15:46:00.110Z,14.10
2017-10-27T15:48:27.553Z,14.12
2017-10-27T15:50:54.947Z,13.96
2017-10-27T15:53:22.347Z,13.90
2017-10-27T15:55:49.736Z,13.88
2017-10-27T15:58:17.210Z,13.67
2017-10-27T16:00:44.615Z,13.71
2017-10-27T16:03:12.126Z,13.64
2017-10-27T16:05:39.514Z,13.55
2017-10-27T16:08:06.914Z,13.53
2017-10-27T16:10:34.429Z,13.52
2017-10-27T16:13:01.815Z,13.52
2017-10-27T16:15:29.218Z,13.44
2017-10-27T16:17:56.758Z,13.31
2017-10-27T16:20:24.160Z,13.24
2017-10-27T16:22:51.543Z,13.24
2017-10-27T16:25:18.951Z,13.20
2017-10-27T16:27:46.357Z,13.07
2017-10-27T16:30:13.764Z,13.06
2017-10-27T16:32:41.185Z,13.04
2017-10-27T16:35:08.585Z,12.97
2017-10-27T16:37:36.019Z,12.91
2017-10-27T16:40:03.570Z,12.85
2017-10-27T16:42:30.967Z,12.82
2017-10-27T16:44:58.400Z,12.74
2017-10-27T16:47:25.831Z,12.62
2017-10-27T16:49:53.279Z,12.57
2017-10-27T16:52:20.688Z,12.48
2017-10-27T16:54:49.150Z,12.40
2017-10-27T16:57:16.982Z,12.32
2017-10-27T16:59:44.370Z,12.26
2017-10-27T17:02:12.598Z,12.15
2017-10-27T17:04:39.980Z,12.04
2017-10-27T17:07:08.603Z,11.95
2017-10-27T17:09:36.226Z,11.92
2017-10-27T17:12:03.599Z,11.96
2017-10-27T17:14:30.990Z,11.98
2017-10-27T17:16:58.526Z,12.00
2017-10-27T17:19:25.931Z,12.05
2017-10-27T17:21:53.330Z,12.07
2017-10-27T17:24:20.861Z,12.07
2017-10-27T17:26:48.242Z,12.11
2017-10-27T17:29:15.635Z,12.13
2017-10-27T17:31:43.156Z,12.17
2017-10-27T17:34:10.574Z,12.12
2017-10-27T17:36:37.966Z,12.11
2017-10-27T17:39:05.369Z,12.18
2017-10-27T17:41:32.795Z,12.27
2017-10-27T17:44:00.173Z,12.39
2017-10-27T17:46:27.679Z,12.46
2017-10-27T17:48:55.091Z,12.53
2017-10-27T17:51:22.486Z,12.56
2017-10-27T17:53:50.914Z,12.60
2017-10-27T17:56:18.313Z,12.64
2017-10-27T17:58:45.702Z,12.65
2017-10-27T18:01:13.887Z,12.60
2017-10-27T18:03:41.294Z,12.50
2017-10-27T18:06:08.696Z,12.46
2017-10-27T18:08:36.739Z,12.43
2017-10-27T18:11:04.202Z,12.39
2017-10-27T18:13:31.594Z,12.32
2017-10-27T18:15:59.805Z,12.24
2017-10-27T18:18:27.198Z,12.17
2017-10-27T18:20:54.602Z,12.07
2017-10-27T18:23:22.070Z,12.00
2017-10-27T18:25:49.502Z,11.94
2017-10-27T18:28:16.894Z,11.92
2017-10-27T18:30:44.314Z,11.89
2017-10-27T18:33:11.702Z,11.88
2017-10-27T18:35:39.115Z,11.83
2017-10-27T18:38:06.722Z,11.75
2017-10-27T18:40:34.115Z,11.71
2017-10-27T18:43:01.525Z,11.75
2017-10-27T18:45:29.033Z,11.72
2017-10-27T18:47:56.430Z,11.74
2017-10-27T18:50:23.904Z,11.75
2017-10-27T18:52:51.334Z,11.73
2017-10-27T18:55:18.721Z,11.75
2017-10-27T18:57:49.815Z,11.72
2017-10-27T19:00:17.314Z,11.65
2017-10-27T19:02:44.699Z,11.72
2017-10-27T19:05:12.114Z,11.73
2017-10-27T19:07:39.627Z,11.80
2017-10-27T19:10:07.021Z,11.78
2017-10-27T19:12:34.420Z,11.75
2017-10-27T19:15:01.924Z,11.77
2017-10-27T19:17:29.317Z,11.77
2017-10-27T19:19:56.709Z,11.85
2017-10-27T19:22:24.127Z,11.86
2017-10-27T19:24:51.515Z,11.85
2017-10-27T19:27:18.926Z,11.88
2017-10-27T19:29:46.426Z,11.83
2017-10-27T19:32:13.828Z,11.86
2017-10-27T19:34:41.221Z,11.94
2017-10-27T19:37:08.645Z,11.98
2017-10-27T19:39:36.452Z,11.99
2017-10-27T19:42:03.829Z,12.03
2017-10-27T19:44:31.234Z,12.01
2017-10-27T19:46:58.627Z,12.05
2017-10-27T19:49:26.018Z,12.18
2017-10-27T19:51:53.530Z,12.17
2017-10-27T19:54:20.978Z,12.24
2017-10-27T19:56:48.369Z,12.25
2017-10-27T19:59:15.787Z,12.25
2017-10-27T20:01:43.195Z,12.23
2017-10-27T20:04:10.593Z,12.26
2017-10-27T20:06:38.087Z,12.26
2017-10-27T20:09:05.486Z,12.25
2017-10-27T20:11:32.873Z,12.26
2017-10-27T20:14:00.283Z,12.31
2017-10-27T20:16:27.694Z,12.31
2017-10-27T20:18:55.083Z,12.31
2017-10-27T20:21:22.483Z,12.30
2017-10-27T20:23:49.882Z,12.28
2017-10-27T20:26:17.274Z,12.31
2017-10-27T20:28:44.692Z,12.34
2017-10-27T20:31:12.078Z,12.36
2017-10-27T20:33:39.465Z,12.35
2017-10-27T20:36:06.880Z,12.33
2017-10-27T20:38:34.257Z,12.33
2017-10-27T20:41:01.653Z,12.34
2017-10-27T20:43:29.054Z,12.35
2017-10-27T20:45:56.437Z,12.33
2017-10-27T20:48:23.822Z,12.34
2017-10-27T20:50:51.326Z,12.37
2017-10-27T20:53:18.723Z,12.34
2017-10-27T20:55:46.686Z,12.27
2017-10-27T20:58:14.107Z,12.28
2017-10-27T21:00:41.509Z,12.28
2017-10-27T21:03:08.893Z,12.20
2017-10-27T21:05:36.305Z,12.16
2017-10-27T21:08:03.697Z,12.11
2017-10-27T21:10:31.094Z,12.20
2017-10-27T21:12:58.522Z,12.24
2017-10-27T21:15:25.969Z,12.28
2017-10-27T21:17:54.162Z,12.29
2017-10-27T21:20:21.570Z,12.34
2017-10-27T21:22:48.954Z,12.35
2017-10-27T21:25:16.350Z,12.34
2017-10-27T21:27:43.770Z,12.34
2017-10-27T21:30:11.170Z,12.31
2017-10-27T21:32:38.555Z,12.29
2017-10-27T21:35:06.052Z,12.27
2017-10-27T21:37:33.437Z,12.26
2017-10-27T21:40:00.835Z,12.26
2017-10-27T21:42:28.342Z,12.24
2017-10-27T21:44:55.733Z,12.20
2017-10-27T21:47:23.134Z,12.18
2017-10-27T21:49:50.536Z,12.13
2017-10-27T21:52:17.930Z,12.08
2017-10-27T21:54:45.333Z,12.01
2017-10-27T21:57:12.753Z,11.99
2017-10-27T21:59:40.146Z,11.92
2017-10-27T22:02:07.539Z,11.92
2017-10-27T22:04:34.953Z,11.91
2017-10-27T22:07:02.348Z,11.85
2017-10-27T22:09:29.742Z,11.84
2017-10-27T22:11:57.151Z,11.82
2017-10-27T22:14:24.546Z,11.86
2017-10-27T22:16:51.957Z,11.89
2017-10-27T22:19:19.390Z,11.90
2017-10-27T22:21:46.790Z,11.88
2017-10-27T22:24:14.193Z,11.85
2017-10-27T22:26:41.709Z,11.77
2017-10-27T22:29:09.127Z,11.72
2017-10-27T22:31:36.519Z,11.73
2017-10-27T22:34:03.927Z,11.72
2017-10-27T22:36:31.330Z,11.63
2017-10-27T22:38:58.722Z,11.61
2017-10-27T22:41:26.174Z,11.53
2017-10-27T22:43:53.599Z,11.55
2017-10-27T22:46:20.987Z,11.47
2017-10-27T22:48:48.404Z,11.52
2017-10-27T22:51:15.805Z,11.54
2017-10-27T22:53:43.197Z,11.51
2017-10-27T22:56:10.703Z,11.49
2017-10-27T22:58:38.087Z,11.52
2017-10-27T23:01:05.482Z,11.50
2017-10-27T23:03:32.903Z,11.58
2017-10-27T23:06:00.298Z,11.57
2017-10-27T23:08:27.706Z,11.60
2017-10-27T23:10:55.202Z,11.62
2017-10-27T23:13:22.594Z,11.63
2017-10-27T23:15:49.986Z,11.63
2017-10-27T23:18:17.469Z,11.66
2017-10-27T23:20:44.860Z,11.66
2017-10-27T23:23:12.250Z,11.64
2017-10-27T23:25:39.655Z,11.64
2017-10-27T23:28:07.049Z,11.75
2017-10-27T23:30:34.456Z,11.76
2017-10-27T23:33:01.977Z,11.73
2017-10-27T23:35:29.373Z,11.77
2017-10-27T23:37:56.764Z,11.74
2017-10-27T23:40:24.289Z,11.69
2017-10-27T23:42:51.678Z,11.81
2017-10-27T23:45:19.078Z,11.81
2017-10-27T23:47:46.502Z,11.82
2017-10-27T23:50:13.890Z,11.72
2017-10-27T23:52:41.293Z,11.62
2017-10-27T23:55:08.722Z,11.64
2017-10-27T23:57:36.114Z,11.65
